Current Weather

Granbury Rgnl

Granbury, Texas (KGDJ)

Report from: Tuesday, June 18, 2024 11:35 AM UTC
Current time: Tuesday, June 18, 2024 11:52 AM UTC

Nearby weather – Weather history – Daily summaries
Weather forecast

Temperature23.8°C (74.8°F)
Dew point20.8°C (69.4°F)
Winds 10 kts (5.1 m/s, 11.5 mph) South-Southeast (150°)
Wind gusts 17 kts (8.7 m/s, 19.6 mph)
Visibility10 mi. (16.1 km)
Clouds Ceiling: Broken clouds 2,000 ft. (610 m)
Overcast 2,500 ft. (762 m)
Altimeter29.84 in.Hg (1010 mB)
Relative humidity83 %
Density altitude1,446 ft. (441 m)
Remarks Fully automated report
Automated weather observing station with precipitation discriminator
Flight conditions Marginal Visual Meteorological Conditions
Raw dataKGDJ 181135Z AUTO 15010G17KT 10SM BKN020 OVC025 24/21 A2984 RMK AO2 T02380208
An error has occurred. This application may no longer respond until reloaded. Reload 🗙